sensor_id;sensor_type;location;lat;lon;timestamp;pressure;altitude;pressure_sealevel;temperature;humidity
12763;BME280;6445;52.490;13.378;2023-01-25T00:01:40;64027.16;;;-146.10;100.00
12763;BME280;6445;52.490;13.378;2023-01-25T00:04:05;64067.28;;;-146.10;100.00
12763;BME280;6445;52.490;13.378;2023-01-25T00:06:30;64542.88;;;-146.10;100.00
12763;BME280;6445;52.490;13.378;2023-01-25T00:08:56;65058.66;;;-146.10;100.00
12763;BME280;6445;52.490;13.378;2023-01-25T00:11:21;63485.41;;;-146.10;100.00
12763;BME280;6445;52.490;13.378;2023-01-25T00:13:46;63228.63;;;-146.10;100.00
12763;BME280;6445;52.490;13.378;2023-01-25T00:16:11;64916.16;;;-146.10;100.00
12763;BME280;6445;52.490;13.378;2023-01-25T00:18:37;65572.50;;;-146.10;100.00
12763;BME280;6445;52.490;13.378;2023-01-25T00:21:11;64743.56;;;-146.10;100.00
12763;BME280;6445;52.490;13.378;2023-01-25T00:23:36;64681.34;;;-146.10;100.00
12763;BME280;6445;52.490;13.378;2023-01-25T00:26:02;65636.75;;;-146.10;100.00
12763;BME280;6445;52.490;13.378;2023-01-25T00:28:27;65046.63;;;-146.10;100.00
12763;BME280;6445;52.490;13.378;2023-01-25T00:30:52;66676.72;;;-146.10;100.00
12763;BME280;6445;52.490;13.378;2023-01-25T00:35:44;65992.06;;;-146.10;100.00
12763;BME280;6445;52.490;13.378;2023-01-25T00:38:29;66570.28;;;-146.10;100.00
12763;BME280;6445;52.490;13.378;2023-01-25T00:40:57;67066.25;;;-146.10;100.00
12763;BME280;6445;52.490;13.378;2023-01-25T00:43:23;66357.47;;;-146.10;100.00
12763;BME280;6445;52.490;13.378;2023-01-25T00:45:48;65717.03;;;-146.10;100.00
12763;BME280;6445;52.490;13.378;2023-01-25T00:48:13;65717.03;;;-146.10;100.00
12763;BME280;6445;52.490;13.378;2023-01-25T00:50:38;65544.41;;;-146.10;100.00
12763;BME280;6445;52.490;13.378;2023-01-25T00:53:04;65359.75;;;-146.10;100.00
12763;BME280;6445;52.490;13.378;2023-01-25T00:55:29;64874.03;;;-146.10;100.00
12763;BME280;6445;52.490;13.378;2023-01-25T00:57:54;64735.53;;;-146.10;100.00
12763;BME280;6445;52.490;13.378;2023-01-25T01:00:20;64438.53;;;-146.10;100.00
12763;BME280;6445;52.490;13.378;2023-01-25T01:02:45;64103.41;;;-146.10;100.00
12763;BME280;6445;52.490;13.378;2023-01-25T01:05:10;64442.53;;;-146.10;100.00
12763;BME280;6445;52.490;13.378;2023-01-25T01:07:35;65022.53;;;-146.10;100.00
12763;BME280;6445;52.490;13.378;2023-01-25T01:10:01;64023.16;;;-146.10;100.00
12763;BME280;6445;52.490;13.378;2023-01-25T01:12:26;62925.72;;;-146.10;100.00
12763;BME280;6445;52.490;13.378;2023-01-25T01:14:51;63557.66;;;-146.10;100.00
12763;BME280;6445;52.490;13.378;2023-01-25T01:17:16;63551.63;;;-146.10;100.00
12763;BME280;6445;52.490;13.378;2023-01-25T01:19:42;64286.00;;;-146.10;100.00
12763;BME280;6445;52.490;13.378;2023-01-25T01:22:07;64061.28;;;-146.10;100.00
12763;BME280;6445;52.490;13.378;2023-01-25T01:24:32;63906.75;;;-146.10;100.00
12763;BME280;6445;52.490;13.378;2023-01-25T01:26:57;63997.06;;;-146.10;100.00
12763;BME280;6445;52.490;13.378;2023-01-25T01:29:23;63884.69;;;-146.10;100.00
12763;BME280;6445;52.490;13.378;2023-01-25T01:31:49;63601.78;;;-146.10;100.00
12763;BME280;6445;52.490;13.378;2023-01-25T01:34:16;63533.56;;;-146.10;100.00
12763;BME280;6445;52.490;13.378;2023-01-25T01:36:42;62295.88;;;-146.10;100.00
12763;BME280;6445;52.490;13.378;2023-01-25T01:39:07;62701.03;;;-146.10;100.00
12763;BME280;6445;52.490;13.378;2023-01-25T01:41:33;63334.94;;;-146.10;100.00
12763;BME280;6445;52.490;13.378;2023-01-25T01:43:58;63347.00;;;-146.10;100.00
12763;BME280;6445;52.490;13.378;2023-01-25T01:46:36;62747.19;;;-146.10;100.00
12763;BME280;6445;52.490;13.378;2023-01-25T01:51:57;62107.34;;;-146.10;100.00
12763;BME280;6445;52.490;13.378;2023-01-25T01:57:07;61138.75;;;-146.10;100.00
12763;BME280;6445;52.490;13.378;2023-01-25T01:59:49;61369.34;;;-146.10;100.00
12763;BME280;6445;52.490;13.378;2023-01-25T02:02:17;61323.22;;;-146.10;100.00
12763;BME280;6445;52.490;13.378;2023-01-25T02:04:46;61204.91;;;-146.10;100.00
12763;BME280;6445;52.490;13.378;2023-01-25T02:07:28;61325.22;;;-146.10;100.00
12763;BME280;6445;52.490;13.378;2023-01-25T02:09:54;60916.19;;;-146.10;100.00
12763;BME280;6445;52.490;13.378;2023-01-25T02:12:21;60030.09;;;-146.10;100.00
12763;BME280;6445;52.490;13.378;2023-01-25T02:14:49;59080.03;;;-146.10;100.00
12763;BME280;6445;52.490;13.378;2023-01-25T02:17:14;59017.91;;;-146.10;100.00
12763;BME280;6445;52.490;13.378;2023-01-25T02:19:53;59410.72;;;-146.10;100.00
12763;BME280;6445;52.490;13.378;2023-01-25T02:22:26;59402.72;;;-146.10;100.00
12763;BME280;6445;52.490;13.378;2023-01-25T02:25:09;59518.94;;;-146.10;100.00
12763;BME280;6445;52.490;13.378;2023-01-25T02:27:38;59803.56;;;-146.10;100.00
12763;BME280;6445;52.490;13.378;2023-01-25T02:30:05;59490.91;;;-146.10;100.00
12763;BME280;6445;52.490;13.378;2023-01-25T02:32:32;58893.66;;;-146.10;100.00
12763;BME280;6445;52.490;13.378;2023-01-25T02:34:57;58685.25;;;-146.10;100.00
12763;BME280;6445;52.490;13.378;2023-01-25T02:37:23;58725.34;;;-146.10;100.00
12763;BME280;6445;52.490;13.378;2023-01-25T02:39:48;58867.63;;;-146.10;100.00
12763;BME280;6445;52.490;13.378;2023-01-25T02:42:13;58649.19;;;-146.10;100.00
12763;BME280;6445;52.490;13.378;2023-01-25T02:44:39;58144.25;;;-146.10;100.00
12763;BME280;6445;52.490;13.378;2023-01-25T02:47:06;57881.78;;;-146.10;100.00
12763;BME280;6445;52.490;13.378;2023-01-25T02:49:34;57717.50;;;-146.10;100.00
12763;BME280;6445;52.490;13.378;2023-01-25T02:52:00;57671.44;;;-146.10;100.00
12763;BME280;6445;52.490;13.378;2023-01-25T02:54:25;57501.16;;;-146.10;100.00
12763;BME280;6445;52.490;13.378;2023-01-25T02:56:51;57154.59;;;-146.10;100.00
12763;BME280;6445;52.490;13.378;2023-01-25T02:59:16;56601.78;;;-146.10;100.00
12763;BME280;6445;52.490;13.378;2023-01-25T03:01:43;56585.75;;;-146.10;100.00
12763;BME280;6445;52.490;13.378;2023-01-25T03:04:08;56441.56;;;-146.10;100.00
12763;BME280;6445;52.490;13.378;2023-01-25T03:06:34;55844.78;;;-146.10;100.00
12763;BME280;6445;52.490;13.378;2023-01-25T03:09:01;55782.72;;;-146.10;100.00
12763;BME280;6445;52.490;13.378;2023-01-25T03:11:26;55854.78;;;-146.10;100.00
12763;BME280;6445;52.490;13.378;2023-01-25T03:13:52;54879.72;;;-146.10;100.00
12763;BME280;6445;52.490;13.378;2023-01-25T03:16:17;54219.13;;;-146.10;100.00
12763;BME280;6445;52.490;13.378;2023-01-25T03:18:43;54113.06;;;-146.10;100.00
12763;BME280;6445;52.490;13.378;2023-01-25T03:21:13;54129.06;;;-146.10;100.00
12763;BME280;6445;52.490;13.378;2023-01-25T03:23:39;53704.75;;;-146.10;100.00
12763;BME280;6445;52.490;13.378;2023-01-25T03:26:14;53432.59;;;-146.10;100.00
12763;BME280;6445;52.490;13.378;2023-01-25T03:28:40;53196.44;;;-146.10;100.00
12763;BME280;6445;52.490;13.378;2023-01-25T03:31:07;52882.28;;;-146.10;100.00
12763;BME280;6445;52.490;13.378;2023-01-25T03:33:33;52760.22;;;-146.10;100.00
12763;BME280;6445;52.490;13.378;2023-01-25T03:35:58;51857.94;;;-146.10;100.00
12763;BME280;6445;52.490;13.378;2023-01-25T03:38:24;51133.84;;;-146.10;100.00
12763;BME280;6445;52.490;13.378;2023-01-25T03:40:50;50305.91;;;-146.10;100.00
12763;BME280;6445;52.490;13.378;2023-01-25T03:43:15;49290.22;;;-146.10;100.00
12763;BME280;6445;52.490;13.378;2023-01-25T03:45:41;48136.91;;;-146.10;100.00
12763;BME280;6445;52.490;13.378;2023-01-25T03:48:06;46892.00;;;-146.10;100.00
12763;BME280;6445;52.490;13.378;2023-01-25T03:50:32;45413.81;;;-146.10;100.00
12763;BME280;6445;52.490;13.378;2023-01-25T03:52:57;44221.69;;;-146.10;100.00
12763;BME280;6445;52.490;13.378;2023-01-25T03:55:31;43528.97;;;-146.10;100.00
12763;BME280;6445;52.490;13.378;2023-01-25T03:57:57;42261.56;;;-146.10;100.00
12763;BME280;6445;52.490;13.378;2023-01-25T04:00:22;41457.44;;;-146.10;100.00
12763;BME280;6445;52.490;13.378;2023-01-25T04:02:47;40599.63;;;-146.10;100.00
12763;BME280;6445;52.490;13.378;2023-01-25T04:05:13;39347.13;;;-146.10;100.00
12763;BME280;6445;52.490;13.378;2023-01-25T04:07:38;36769.63;;;-146.10;100.00
12763;BME280;6445;52.490;13.378;2023-01-25T04:10:05;35281.28;;;-146.10;100.00
12763;BME280;6445;52.490;13.378;2023-01-25T04:12:31;35747.47;;;-146.10;100.00
12763;BME280;6445;52.490;13.378;2023-01-25T04:14:56;34353.13;;;-146.10;100.00
12763;BME280;6445;52.490;13.378;2023-01-25T04:17:21;32863.72;;;-146.10;100.00
12763;BME280;6445;52.490;13.378;2023-01-25T04:19:47;30103.47;;;-146.10;100.00
12763;BME280;6445;52.490;13.378;2023-01-25T04:22:12;28575.91;;;-146.10;100.00
12763;BME280;6445;52.490;13.378;2023-01-25T04:24:38;28066.84;;;-146.10;100.00
12763;BME280;6445;52.490;13.378;2023-01-25T04:27:04;27812.34;;;-146.10;100.00
12763;BME280;6445;52.490;13.378;2023-01-25T04:29:29;26794.50;;;-146.10;100.00
12763;BME280;6445;52.490;13.378;2023-01-25T04:31:54;25776.94;;;-146.10;100.00
12763;BME280;6445;52.490;13.378;2023-01-25T04:34:20;23996.81;;;-146.10;100.00
12763;BME280;6445;52.490;13.378;2023-01-25T04:36:45;22217.50;;;-146.10;100.00
12763;BME280;6445;52.490;13.378;2023-01-25T04:39:10;21455.19;;;-146.10;100.00
12763;BME280;6445;52.490;13.378;2023-01-25T04:41:35;20439.00;;;-146.10;100.00
12763;BME280;6445;52.490;13.378;2023-01-25T04:44:01;19169.16;;;-146.10;100.00
12763;BME280;6445;52.490;13.378;2023-01-25T04:46:26;19169.16;;;-146.10;100.00
12763;BME280;6445;52.490;13.378;2023-01-25T04:48:51;17899.72;;;-146.10;100.00
12763;BME280;6445;52.490;13.378;2023-01-25T04:51:16;16630.69;;;-146.10;100.00
12763;BME280;6445;52.490;13.378;2023-01-25T04:53:42;16123.19;;;-146.10;100.00
12763;BME280;6445;52.490;13.378;2023-01-25T04:56:07;14854.75;;;-146.10;100.00
12763;BME280;6445;52.490;13.378;2023-01-25T04:58:32;14347.47;;;-146.10;100.00
12763;BME280;6445;52.490;13.378;2023-01-25T05:01:03;13840.28;;;-146.10;100.00
12763;BME280;6445;52.490;13.378;2023-01-25T05:03:28;13586.72;;;-146.10;100.00
12763;BME280;6445;52.490;13.378;2023-01-25T05:05:54;12572.56;;;-146.10;100.00
12763;BME280;6445;52.490;13.378;2023-01-25T05:08:19;11305.28;;;-146.10;100.00
12763;BME280;6445;52.490;13.378;2023-01-25T05:10:44;11558.72;;;-146.10;100.00
12763;BME280;6445;52.490;13.378;2023-01-25T05:13:10;12572.56;;;-146.10;100.00
12763;BME280;6445;52.490;13.378;2023-01-25T05:15:35;13586.72;;;-146.10;100.00
12763;BME280;6445;52.490;13.378;2023-01-25T05:18:01;12572.56;;;-146.10;100.00
12763;BME280;6445;52.490;13.378;2023-01-25T05:20:26;11558.72;;;-146.10;100.00
12763;BME280;6445;52.490;13.378;2023-01-25T05:22:51;10291.75;;;-146.10;100.00
12763;BME280;6445;52.490;13.378;2023-01-25T05:25:17;8771.97;;;-146.10;100.00
12763;BME280;6445;52.490;13.378;2023-01-25T05:28:05;7759.09;;;-146.10;100.00
12763;BME280;6445;52.490;13.378;2023-01-25T05:30:31;6999.59;;;-146.10;100.00
12763;BME280;6445;52.490;13.378;2023-01-25T05:32:56;6746.47;;;-146.10;100.00
12763;BME280;6445;52.490;13.378;2023-01-25T05:35:22;5228.06;;;-146.10;100.00
12763;BME280;6445;52.490;13.378;2023-01-25T05:37:47;4722.06;;;-146.10;100.00
12763;BME280;6445;52.490;13.378;2023-01-25T05:40:12;3963.19;;;-146.10;100.00
12763;BME280;6445;52.490;13.378;2023-01-25T05:42:38;3457.34;;;-146.10;100.00
12763;BME280;6445;52.490;13.378;2023-01-25T05:45:04;3204.44;;;-146.10;100.00
12763;BME280;6445;52.490;13.378;2023-01-25T05:47:29;2445.88;;;-146.10;100.00
12763;BME280;6445;52.490;13.378;2023-01-25T05:49:54;3204.44;;;-146.10;100.00
12763;BME280;6445;52.490;13.378;2023-01-25T05:52:20;2445.88;;;-146.10;100.00
12763;BME280;6445;52.490;13.378;2023-01-25T05:54:45;2193.03;;;-146.10;100.00
12763;BME280;6445;52.490;13.378;2023-01-25T05:57:12;1687.44;;;-146.10;100.00
12763;BME280;6445;52.490;13.378;2023-01-25T05:59:38;929.16;;;-146.10;100.00
12763;BME280;6445;52.490;13.378;2023-01-25T06:02:03;676.41;;;-146.10;100.00
12763;BME280;6445;52.490;13.378;2023-01-25T06:04:28;423.72;;;-146.10;100.00
12763;BME280;6445;52.490;13.378;2023-01-25T06:06:53;1687.44;;;-146.10;100.00
12763;BME280;6445;52.490;13.378;2023-01-25T06:09:19;423.72;;;-146.10;100.00
12763;BME280;6445;52.490;13.378;2023-01-25T06:11:44;-81.66;;;-146.10;100.00
12763;BME280;6445;52.490;13.378;2023-01-25T06:14:09;-586.97;;;-146.10;100.00
12763;BME280;6445;52.490;13.378;2023-01-25T06:16:35;-839.59;;;-146.10;100.00
12763;BME280;6445;52.490;13.378;2023-01-25T06:19:00;-1092.22;;;-146.10;100.00
12763;BME280;6445;52.490;13.378;2023-01-25T06:21:25;-1092.22;;;-146.10;100.00
12763;BME280;6445;52.490;13.378;2023-01-25T06:23:51;-2102.50;;;-146.10;100.00
12763;BME280;6445;52.490;13.378;2023-01-25T06:26:16;-2607.53;;;-146.10;100.00
12763;BME280;6445;52.490;13.378;2023-01-25T06:28:41;-3365.00;;;-146.10;100.00
12763;BME280;6445;52.490;13.378;2023-01-25T06:31:08;-4122.28;;;-146.10;100.00
12763;BME280;6445;52.490;13.378;2023-01-25T06:33:34;-4122.28;;;-146.10;100.00
12763;BME280;6445;52.490;13.378;2023-01-25T06:36:11;-4122.28;;;-146.10;100.00
12763;BME280;6445;52.490;13.378;2023-01-25T06:38:37;-3365.00;;;-146.10;100.00
12763;BME280;6445;52.490;13.378;2023-01-25T06:41:04;-3617.44;;;-146.10;100.00
12763;BME280;6445;52.490;13.378;2023-01-25T06:43:31;-3365.00;;;-146.10;100.00
12763;BME280;6445;52.490;13.378;2023-01-25T06:45:58;-2860.03;;;-146.10;100.00
12763;BME280;6445;52.490;13.378;2023-01-25T06:48:23;-2860.03;;;-146.10;100.00
12763;BME280;6445;52.490;13.378;2023-01-25T06:51:15;-3617.44;;;-146.10;100.00
12763;BME280;6445;52.490;13.378;2023-01-25T06:53:42;-3869.88;;;-146.10;100.00
12763;BME280;6445;52.490;13.378;2023-01-25T06:56:12;-5131.78;;;-146.10;100.00
12763;BME280;6445;52.490;13.378;2023-01-25T06:58:38;-5384.09;;;-146.10;100.00
12763;BME280;6445;52.490;13.378;2023-01-25T07:01:07;-6393.25;;;-146.10;100.00
12763;BME280;6445;52.490;13.378;2023-01-25T07:03:34;-6393.25;;;-146.10;100.00
12763;BME280;6445;52.490;13.378;2023-01-25T07:06:04;-6645.50;;;-146.10;100.00
12763;BME280;6445;52.490;13.378;2023-01-25T07:08:30;-6897.75;;;-146.10;100.00
12763;BME280;6445;52.490;13.378;2023-01-25T07:11:00;-6645.50;;;-146.10;100.00
12763;BME280;6445;52.490;13.378;2023-01-25T07:13:27;-6897.75;;;-146.10;100.00
12763;BME280;6445;52.490;13.378;2023-01-25T07:15:58;-7149.94;;;-146.10;100.00
12763;BME280;6445;52.490;13.378;2023-01-25T07:18:25;-7402.16;;;-146.10;100.00
12763;BME280;6445;52.490;13.378;2023-01-25T07:20:51;-7654.34;;;-146.10;100.00
12763;BME280;6445;52.490;13.378;2023-01-25T07:23:16;-7906.50;;;-146.10;100.00
12763;BME280;6445;52.490;13.378;2023-01-25T07:25:43;-8158.66;;;-146.10;100.00
12763;BME280;6445;52.490;13.378;2023-01-25T07:28:09;-7906.50;;;-146.10;100.00
12763;BME280;6445;52.490;13.378;2023-01-25T07:30:34;-8410.78;;;-146.10;100.00
12763;BME280;6445;52.490;13.378;2023-01-25T07:32:59;-8915.00;;;-146.10;100.00
12763;BME280;6445;52.490;13.378;2023-01-25T07:35:25;-8662.91;;;-146.10;100.00
12763;BME280;6445;52.490;13.378;2023-01-25T07:37:50;-8915.00;;;-146.10;100.00
12763;BME280;6445;52.490;13.378;2023-01-25T07:40:15;-9419.13;;;-146.10;100.00
12763;BME280;6445;52.490;13.378;2023-01-25T07:42:40;-9923.22;;;-146.10;100.00
12763;BME280;6445;52.490;13.378;2023-01-25T07:45:06;-9671.19;;;-146.10;100.00
12763;BME280;6445;52.490;13.378;2023-01-25T07:47:32;-10175.25;;;-146.10;100.00
12763;BME280;6445;52.490;13.378;2023-01-25T07:49:57;-10427.25;;;-146.10;100.00
12763;BME280;6445;52.490;13.378;2023-01-25T07:52:23;-10679.22;;;-146.10;100.00
12763;BME280;6445;52.490;13.378;2023-01-25T07:54:49;-10931.19;;;-146.10;100.00
12763;BME280;6445;52.490;13.378;2023-01-25T07:57:14;-11183.13;;;-146.10;100.00
12763;BME280;6445;52.490;13.378;2023-01-25T07:59:39;-11435.06;;;-146.10;100.00
12763;BME280;6445;52.490;13.378;2023-01-25T08:02:06;-11938.88;;;-146.10;100.00
12763;BME280;6445;52.490;13.378;2023-01-25T08:04:32;-11938.88;;;-146.10;100.00
12763;BME280;6445;52.490;13.378;2023-01-25T08:06:57;-11938.88;;;-146.10;100.00
12763;BME280;6445;52.490;13.378;2023-01-25T08:09:22;-12190.78;;;-146.10;100.00
12763;BME280;6445;52.490;13.378;2023-01-25T08:11:47;-12190.78;;;-146.10;100.00
12763;BME280;6445;52.490;13.378;2023-01-25T08:14:13;-12442.63;;;-146.10;100.00
12763;BME280;6445;52.490;13.378;2023-01-25T08:16:39;-12442.63;;;-146.10;100.00
12763;BME280;6445;52.490;13.378;2023-01-25T08:19:04;-12442.63;;;-146.10;100.00
12763;BME280;6445;52.490;13.378;2023-01-25T08:21:31;-12442.63;;;-146.10;100.00
12763;BME280;6445;52.490;13.378;2023-01-25T08:24:02;-12442.63;;;-146.10;100.00
12763;BME280;6445;52.490;13.378;2023-01-25T08:26:28;-12694.50;;;-146.10;100.00
12763;BME280;6445;52.490;13.378;2023-01-25T08:28:53;-12694.50;;;-146.10;100.00
12763;BME280;6445;52.490;13.378;2023-01-25T08:31:27;-12694.50;;;-146.10;100.00
12763;BME280;6445;52.490;13.378;2023-01-25T08:33:53;-12694.50;;;-146.10;100.00
12763;BME280;6445;52.490;13.378;2023-01-25T08:36:19;-12694.50;;;-146.10;100.00
12763;BME280;6445;52.490;13.378;2023-01-25T08:38:45;-12694.50;;;-146.10;100.00
12763;BME280;6445;52.490;13.378;2023-01-25T08:41:13;-12694.50;;;-146.10;100.00
12763;BME280;6445;52.490;13.378;2023-01-25T08:43:39;-12694.50;;;-146.10;100.00
12763;BME280;6445;52.490;13.378;2023-01-25T08:46:05;-12694.50;;;-146.10;100.00
12763;BME280;6445;52.490;13.378;2023-01-25T08:48:30;-12694.50;;;-146.10;100.00
12763;BME280;6445;52.490;13.378;2023-01-25T08:50:56;-12694.50;;;-146.10;100.00
12763;BME280;6445;52.490;13.378;2023-01-25T08:53:21;-12694.50;;;-146.10;100.00
12763;BME280;6445;52.490;13.378;2023-01-25T08:55:47;-12694.50;;;-146.10;100.00
12763;BME280;6445;52.490;13.378;2023-01-25T08:58:13;-12694.50;;;-146.10;100.00
12763;BME280;6445;52.490;13.378;2023-01-25T09:00:41;-12694.50;;;-146.10;100.00
12763;BME280;6445;52.490;13.378;2023-01-25T09:03:07;-12694.50;;;-146.10;100.00
12763;BME280;6445;52.490;13.378;2023-01-25T09:05:33;-12694.50;;;-146.10;100.00
12763;BME280;6445;52.490;13.378;2023-01-25T09:08:00;-12694.50;;;-146.10;100.00
12763;BME280;6445;52.490;13.378;2023-01-25T09:10:25;-12694.50;;;-146.10;100.00
12763;BME280;6445;52.490;13.378;2023-01-25T09:12:50;-12694.50;;;-146.10;100.00
12763;BME280;6445;52.490;13.378;2023-01-25T09:15:16;-12694.50;;;-146.10;100.00
12763;BME280;6445;52.490;13.378;2023-01-25T09:17:41;-12694.50;;;-146.10;100.00
12763;BME280;6445;52.490;13.378;2023-01-25T09:20:07;-12694.50;;;-146.10;100.00
12763;BME280;6445;52.490;13.378;2023-01-25T09:22:33;-12694.50;;;-146.10;100.00
12763;BME280;6445;52.490;13.378;2023-01-25T09:24:58;-12694.50;;;-146.10;100.00
12763;BME280;6445;52.490;13.378;2023-01-25T09:27:23;-12694.50;;;-146.10;100.00
12763;BME280;6445;52.490;13.378;2023-01-25T09:29:49;-12695.97;;;-146.10;100.00
12763;BME280;6445;52.490;13.378;2023-01-25T09:32:14;-12695.97;;;-146.10;100.00
12763;BME280;6445;52.490;13.378;2023-01-25T09:34:39;-12695.97;;;-146.10;100.00
12763;BME280;6445;52.490;13.378;2023-01-25T09:37:04;-12695.97;;;-146.10;100.00
12763;BME280;6445;52.490;13.378;2023-01-25T09:39:29;-12695.97;;;-146.10;100.00
12763;BME280;6445;52.490;13.378;2023-01-25T09:47:41;-12695.97;;;-146.10;100.00
12763;BME280;6445;52.490;13.378;2023-01-25T09:53:28;-12695.97;;;-146.10;100.00
12763;BME280;6445;52.490;13.378;2023-01-25T09:56:19;-12695.97;;;-146.10;100.00
12763;BME280;6445;52.490;13.378;2023-01-25T09:58:47;-12695.97;;;-146.10;100.00
12763;BME280;6445;52.490;13.378;2023-01-25T10:01:28;-12695.97;;;-146.10;100.00
12763;BME280;6445;52.490;13.378;2023-01-25T10:04:12;-12695.97;;;-146.10;100.00
12763;BME280;6445;52.490;13.378;2023-01-25T10:06:41;-12695.97;;;-146.10;100.00
12763;BME280;6445;52.490;13.378;2023-01-25T10:09:19;-12695.97;;;-146.10;100.00
12763;BME280;6445;52.490;13.378;2023-01-25T10:11:48;-12695.97;;;-146.10;100.00
12763;BME280;6445;52.490;13.378;2023-01-25T10:14:16;-12695.97;;;-146.10;100.00
12763;BME280;6445;52.490;13.378;2023-01-25T10:16:49;-12695.97;;;-146.10;100.00
12763;BME280;6445;52.490;13.378;2023-01-25T10:19:45;-12695.97;;;-146.10;100.00
12763;BME280;6445;52.490;13.378;2023-01-25T10:22:22;-12695.97;;;-146.10;100.00
12763;BME280;6445;52.490;13.378;2023-01-25T10:30:26;-12695.97;;;-146.10;100.00
12763;BME280;6445;52.490;13.378;2023-01-25T10:32:55;-12695.97;;;-146.10;100.00
12763;BME280;6445;52.490;13.378;2023-01-25T10:35:29;-12695.97;;;-146.10;100.00
12763;BME280;6445;52.490;13.378;2023-01-25T10:37:58;-12695.97;;;-146.10;100.00
12763;BME280;6445;52.490;13.378;2023-01-25T10:40:30;-12695.97;;;-146.10;100.00
12763;BME280;6445;52.490;13.378;2023-01-25T10:43:02;-12695.97;;;-146.10;100.00
12763;BME280;6445;52.490;13.378;2023-01-25T10:45:30;-12695.97;;;-146.10;100.00
12763;BME280;6445;52.490;13.378;2023-01-25T10:48:05;-12695.97;;;-146.10;100.00
12763;BME280;6445;52.490;13.378;2023-01-25T10:53:19;-12695.97;;;-146.10;100.00
12763;BME280;6445;52.490;13.378;2023-01-25T10:55:58;-12695.97;;;-146.10;100.00
12763;BME280;6445;52.490;13.378;2023-01-25T10:58:33;-12695.97;;;-146.10;100.00
12763;BME280;6445;52.490;13.378;2023-01-25T11:00:59;-12695.97;;;-146.10;100.00
12763;BME280;6445;52.490;13.378;2023-01-25T11:03:33;-12695.97;;;-146.10;100.00
12763;BME280;6445;52.490;13.378;2023-01-25T11:05:59;-12695.97;;;-146.10;100.00
12763;BME280;6445;52.490;13.378;2023-01-25T11:08:35;-12695.97;;;-146.10;100.00
12763;BME280;6445;52.490;13.378;2023-01-25T11:11:21;-12695.97;;;-146.10;100.00
12763;BME280;6445;52.490;13.378;2023-01-25T11:13:47;-12695.97;;;-146.10;100.00
12763;BME280;6445;52.490;13.378;2023-01-25T11:16:26;-12695.97;;;-146.10;100.00
12763;BME280;6445;52.490;13.378;2023-01-25T11:18:54;-12695.97;;;-146.10;100.00
12763;BME280;6445;52.490;13.378;2023-01-25T11:21:25;-12695.97;;;-146.10;100.00
12763;BME280;6445;52.490;13.378;2023-01-25T11:23:59;-12695.97;;;-146.10;100.00
12763;BME280;6445;52.490;13.378;2023-01-25T11:26:25;-12695.97;;;-146.10;100.00
12763;BME280;6445;52.490;13.378;2023-01-25T11:31:36;-12695.97;;;-146.10;100.00
12763;BME280;6445;52.490;13.378;2023-01-25T11:34:01;-12695.97;;;-146.10;100.00
12763;BME280;6445;52.490;13.378;2023-01-25T11:36:43;-12695.97;;;-146.10;100.00
12763;BME280;6445;52.490;13.378;2023-01-25T11:39:34;-12695.97;;;-146.10;100.00
12763;BME280;6445;52.490;13.378;2023-01-25T11:42:16;-12695.97;;;-146.10;100.00
12763;BME280;6445;52.490;13.378;2023-01-25T11:45:05;-12695.97;;;-146.10;100.00
12763;BME280;6445;52.490;13.378;2023-01-25T11:59:02;-12695.97;;;-146.10;100.00
12763;BME280;6445;52.490;13.378;2023-01-25T12:01:52;-12695.97;;;-146.10;100.00
12763;BME280;6445;52.490;13.378;2023-01-25T12:07:14;-12695.97;;;-146.10;100.00
12763;BME280;6445;52.490;13.378;2023-01-25T12:09:50;-12695.97;;;-146.10;100.00
12763;BME280;6445;52.490;13.378;2023-01-25T12:12:28;-12695.97;;;-146.10;100.00
12763;BME280;6445;52.490;13.378;2023-01-25T12:15:25;-12695.97;;;-146.10;100.00
12763;BME280;6445;52.490;13.378;2023-01-25T12:20:56;-12695.97;;;-146.10;100.00
12763;BME280;6445;52.490;13.378;2023-01-25T12:23:51;-12695.97;;;-146.10;100.00
12763;BME280;6445;52.490;13.378;2023-01-25T12:26:23;-12695.97;;;-146.10;100.00
12763;BME280;6445;52.490;13.378;2023-01-25T12:29:23;-12695.97;;;-146.10;100.00
12763;BME280;6445;52.490;13.378;2023-01-25T12:34:39;-12695.97;;;-146.10;100.00
12763;BME280;6445;52.490;13.378;2023-01-25T12:37:19;-12695.97;;;-146.10;100.00
12763;BME280;6445;52.490;13.378;2023-01-25T12:39:56;-12695.97;;;-146.10;100.00
12763;BME280;6445;52.490;13.378;2023-01-25T12:42:39;-12695.97;;;-146.10;100.00
12763;BME280;6445;52.490;13.378;2023-01-25T12:45:11;-12695.97;;;-146.10;100.00
12763;BME280;6445;52.490;13.378;2023-01-25T12:47:49;-12695.97;;;-146.10;100.00
12763;BME280;6445;52.490;13.378;2023-01-25T12:50:20;-12695.97;;;-146.10;100.00
12763;BME280;6445;52.490;13.378;2023-01-25T12:52:53;-12695.97;;;-146.10;100.00
12763;BME280;6445;52.490;13.378;2023-01-25T12:55:19;-12695.97;;;-146.10;100.00
12763;BME280;6445;52.490;13.378;2023-01-25T13:09:18;-12695.97;;;-146.10;100.00
12763;BME280;6445;52.490;13.378;2023-01-25T13:11:48;-12695.97;;;-146.10;100.00
12763;BME280;6445;52.490;13.378;2023-01-25T13:16:44;-12695.97;;;-146.10;100.00
12763;BME280;6445;52.490;13.378;2023-01-25T13:21:54;-12695.97;;;-146.10;100.00
12763;BME280;6445;52.490;13.378;2023-01-25T13:24:27;-12695.97;;;-146.10;100.00
12763;BME280;6445;52.490;13.378;2023-01-25T13:32:13;-12695.97;;;-146.10;100.00
12763;BME280;6445;52.490;13.378;2023-01-25T13:34:59;-12695.97;;;-146.10;100.00
12763;BME280;6445;52.490;13.378;2023-01-25T13:39:51;-12695.97;;;-146.10;100.00
12763;BME280;6445;52.490;13.378;2023-01-25T13:44:47;-12695.97;;;-146.10;100.00
12763;BME280;6445;52.490;13.378;2023-01-25T13:47:20;-12695.97;;;-146.10;100.00
12763;BME280;6445;52.490;13.378;2023-01-25T13:52:25;-12695.97;;;-146.10;100.00